createdAt,value
2019-02-28T00:02:41.464Z,9.83
2019-02-28T00:05:29.629Z,10.60
2019-02-28T00:08:17.582Z,10.30
2019-02-28T00:11:06.035Z,9.20
2019-02-28T00:13:55.842Z,9.83
2019-02-28T00:16:43.480Z,10.30
2019-02-28T00:19:31.140Z,9.83
2019-02-28T00:22:18.890Z,9.70
2019-02-28T00:25:10.493Z,9.57
2019-02-28T00:27:58.467Z,10.70
2019-02-28T00:30:46.388Z,10.33
2019-02-28T00:33:34.166Z,9.93
2019-02-28T00:36:21.964Z,10.77
2019-02-28T00:39:09.648Z,12.17
2019-02-28T00:41:57.614Z,10.47
2019-02-28T00:44:45.266Z,9.50
2019-02-28T00:47:33.009Z,8.93
2019-02-28T00:50:20.837Z,9.93
2019-02-28T00:53:08.589Z,8.30
2019-02-28T00:55:56.413Z,9.23
2019-02-28T00:58:44.082Z,8.60
2019-02-28T01:01:31.644Z,9.37
2019-02-28T01:04:19.336Z,9.63
2019-02-28T01:07:07.282Z,9.43
2019-02-28T01:09:55.300Z,9.97
2019-02-28T01:12:43.124Z,9.97
2019-02-28T01:15:30.984Z,9.43
2019-02-28T01:18:18.822Z,10.43
2019-02-28T01:21:06.644Z,10.83
2019-02-28T01:23:54.412Z,9.20
2019-02-28T01:26:43.368Z,9.40
2019-02-28T01:29:32.966Z,9.47
2019-02-28T01:32:22.407Z,10.27
2019-02-28T01:35:10.713Z,10.07
2019-02-28T01:37:58.631Z,9.77
2019-02-28T01:40:46.641Z,10.67
2019-02-28T01:43:34.406Z,11.00
2019-02-28T01:46:22.062Z,9.57
2019-02-28T01:49:10.013Z,11.00
2019-02-28T01:51:57.580Z,10.47
2019-02-28T01:54:45.225Z,9.33
2019-02-28T01:57:33.137Z,10.13
2019-02-28T02:00:23.834Z,10.00
2019-02-28T02:03:11.446Z,11.00
2019-02-28T02:05:58.944Z,9.77
2019-02-28T02:08:46.928Z,10.53
2019-02-28T02:11:34.681Z,9.90
2019-02-28T02:14:22.753Z,9.67
2019-02-28T02:17:10.590Z,10.00
2019-02-28T02:19:58.614Z,11.27
2019-02-28T02:22:46.591Z,10.17
2019-02-28T02:25:36.974Z,10.27
2019-02-28T02:28:26.720Z,9.90
2019-02-28T02:31:12.891Z,9.70
2019-02-28T02:34:00.946Z,8.43
2019-02-28T02:36:52.961Z,9.77
2019-02-28T02:39:39.234Z,8.97
2019-02-28T02:42:27.119Z,10.10
2019-02-28T02:45:15.371Z,9.30
2019-02-28T02:48:05.207Z,9.10
2019-02-28T02:50:52.434Z,8.80
2019-02-28T02:53:42.185Z,9.47
2019-02-28T02:56:29.544Z,9.93
2019-02-28T02:59:17.228Z,9.23
2019-02-28T03:02:05.076Z,8.33
2019-02-28T03:04:57.774Z,8.30
2019-02-28T03:07:42.627Z,8.27
2019-02-28T03:10:30.462Z,9.50
2019-02-28T03:13:18.349Z,9.07
2019-02-28T03:16:06.174Z,8.90
2019-02-28T03:18:58.228Z,8.47
2019-02-28T03:21:51.022Z,8.17
2019-02-28T03:24:33.565Z,8.10
2019-02-28T03:27:21.389Z,8.87
2019-02-28T03:30:12.405Z,8.27
2019-02-28T03:33:02.328Z,8.50
2019-02-28T03:35:50.481Z,8.93
2019-02-28T03:38:38.137Z,9.17
2019-02-28T03:41:26.175Z,8.20
2019-02-28T03:44:19.823Z,8.43
2019-02-28T03:47:03.826Z,8.47
2019-02-28T03:49:51.331Z,8.87
2019-02-28T03:52:43.756Z,9.17
2019-02-28T03:55:28.961Z,8.60
2019-02-28T03:58:16.679Z,8.63
2019-02-28T04:01:08.771Z,9.20
2019-02-28T04:03:54.096Z,10.00
2019-02-28T04:06:41.844Z,8.93
2019-02-28T04:09:29.679Z,10.37
2019-02-28T04:12:17.531Z,8.57
2019-02-28T04:15:10.184Z,9.73
2019-02-28T04:17:57.993Z,9.60
2019-02-28T04:20:45.863Z,9.13
2019-02-28T04:23:36.188Z,8.93
2019-02-28T04:26:23.355Z,9.53
2019-02-28T04:29:11.362Z,9.23
2019-02-28T04:31:59.009Z,9.73
2019-02-28T04:34:49.232Z,8.27
2019-02-28T04:37:36.469Z,8.73
2019-02-28T04:40:26.984Z,9.37
2019-02-28T04:43:14.050Z,10.33
2019-02-28T04:46:02.063Z,9.80
2019-02-28T04:48:50.140Z,9.53
2019-02-28T04:51:40.223Z,9.53
2019-02-28T04:54:28.783Z,9.37
2019-02-28T04:57:17.309Z,8.70
2019-02-28T05:00:09.907Z,9.53
2019-02-28T05:02:57.881Z,8.97
2019-02-28T05:05:46.891Z,9.40
2019-02-28T05:08:38.662Z,8.83
2019-02-28T05:11:27.393Z,8.83
2019-02-28T05:14:15.942Z,8.07
2019-02-28T05:17:03.720Z,9.07
2019-02-28T05:19:51.690Z,8.70
2019-02-28T05:22:39.524Z,10.07
2019-02-28T05:25:27.134Z,9.50
2019-02-28T05:28:14.966Z,9.57
2019-02-28T05:31:02.877Z,9.43
2019-02-28T05:33:50.557Z,9.40
2019-02-28T05:36:38.810Z,8.73
2019-02-28T05:39:28.195Z,9.37
2019-02-28T05:42:15.920Z,9.60
2019-02-28T05:45:05.201Z,10.13
2019-02-28T05:47:53.203Z,9.10
2019-02-28T05:50:40.846Z,9.50
2019-02-28T05:53:28.703Z,10.37
2019-02-28T05:56:16.890Z,10.53
2019-02-28T05:59:04.760Z,10.17
2019-02-28T06:01:52.849Z,10.00
2019-02-28T06:04:40.888Z,9.53
2019-02-28T06:07:29.538Z,10.43
2019-02-28T06:10:23.531Z,10.83
2019-02-28T06:13:07.369Z,10.87
2019-02-28T06:15:55.916Z,10.90
2019-02-28T06:18:43.857Z,11.10
2019-02-28T06:21:31.978Z,10.60
2019-02-28T06:24:19.599Z,11.37
2019-02-28T06:27:07.677Z,10.47
2019-02-28T06:29:55.691Z,9.90
2019-02-28T06:32:43.609Z,9.93
2019-02-28T06:35:31.550Z,10.63
2019-02-28T06:38:19.187Z,9.50
2019-02-28T06:41:08.687Z,11.07
2019-02-28T06:43:57.017Z,10.63
2019-02-28T06:46:44.854Z,10.80
2019-02-28T06:49:34.036Z,10.50
2019-02-28T06:52:22.248Z,10.73
2019-02-28T06:55:13.381Z,10.33
2019-02-28T06:58:01.188Z,10.57
2019-02-28T07:00:50.409Z,9.77
2019-02-28T07:03:39.937Z,9.43
2019-02-28T07:10:17.321Z,9.07
2019-02-28T07:13:05.654Z,9.03
2019-02-28T07:15:55.489Z,9.47
2019-02-28T07:18:42.650Z,11.23
2019-02-28T07:21:30.628Z,9.83
2019-02-28T07:24:18.556Z,10.13
2019-02-28T07:27:06.576Z,10.47
2019-02-28T07:29:54.191Z,9.67
2019-02-28T07:32:41.947Z,9.47
2019-02-28T07:35:34.054Z,9.83
2019-02-28T07:38:20.077Z,9.87
2019-02-28T07:41:08.101Z,9.87
2019-02-28T07:43:56.000Z,10.07
2019-02-28T07:46:43.886Z,10.50
2019-02-28T07:49:35.886Z,9.73
2019-02-28T07:52:21.639Z,11.77
2019-02-28T07:55:17.552Z,10.03
2019-02-28T07:58:05.485Z,10.43
2019-02-28T08:00:53.743Z,9.73
2019-02-28T08:03:43.432Z,10.47
2019-02-28T08:06:31.230Z,10.93
2019-02-28T08:09:27.424Z,10.70
2019-02-28T08:12:15.555Z,11.30
2019-02-28T08:15:04.967Z,10.20
2019-02-28T08:17:52.720Z,10.27
2019-02-28T08:20:40.608Z,10.27
2019-02-28T08:23:29.945Z,10.73
2019-02-28T08:26:18.852Z,11.40
2019-02-28T08:29:09.175Z,9.90
2019-02-28T08:31:57.556Z,10.67
2019-02-28T08:34:46.860Z,11.67
2019-02-28T08:37:34.851Z,11.40
2019-02-28T08:40:26.462Z,10.90
2019-02-28T08:43:14.130Z,11.13
2019-02-28T08:46:02.814Z,10.93
2019-02-28T08:48:50.778Z,11.33
2019-02-28T08:51:38.528Z,10.50
2019-02-28T08:54:27.492Z,10.87
2019-02-28T08:57:15.660Z,11.23
2019-02-28T09:00:05.026Z,10.57
2019-02-28T09:02:53.661Z,10.60
2019-02-28T09:05:41.695Z,10.50
2019-02-28T09:08:29.558Z,10.77
2019-02-28T09:11:20.480Z,10.57
2019-02-28T09:14:07.541Z,10.40
2019-02-28T09:16:55.448Z,10.03
2019-02-28T09:19:43.258Z,10.27
2019-02-28T09:22:30.993Z,11.53
2019-02-28T09:25:22.088Z,10.87
2019-02-28T09:28:10.201Z,10.10
2019-02-28T09:31:01.404Z,13.03
2019-02-28T09:33:48.668Z,14.83
2019-02-28T09:36:36.522Z,14.73
2019-02-28T09:39:24.639Z,15.00
2019-02-28T09:42:15.727Z,14.50
2019-02-28T09:45:06.775Z,15.33
2019-02-28T09:47:52.076Z,14.97
2019-02-28T09:50:40.190Z,16.33
2019-02-28T09:53:28.160Z,16.00
2019-02-28T09:56:15.789Z,17.30
2019-02-28T09:59:03.978Z,16.10
2019-02-28T10:02:00.920Z,16.40
2019-02-28T10:04:41.999Z,16.33
2019-02-28T10:07:29.949Z,17.17
2019-02-28T10:10:23.284Z,15.20
2019-02-28T10:13:11.198Z,15.07
2019-02-28T10:15:59.321Z,14.97
2019-02-28T10:18:47.181Z,15.10
2019-02-28T10:21:36.517Z,15.53
2019-02-28T10:24:24.765Z,14.30
2019-02-28T10:27:12.689Z,14.93
2019-02-28T10:30:00.691Z,14.53
2019-02-28T10:32:48.589Z,13.93
2019-02-28T10:35:36.746Z,13.57
2019-02-28T10:38:25.676Z,14.63
2019-02-28T10:41:15.386Z,13.83
2019-02-28T10:44:03.029Z,13.77
2019-02-28T10:46:53.955Z,13.83
2019-02-28T10:49:40.161Z,14.20
2019-02-28T10:52:30.541Z,13.97
2019-02-28T10:55:19.384Z,14.13
2019-02-28T10:58:08.134Z,14.27
2019-02-28T11:00:56.114Z,14.57
2019-02-28T11:03:44.081Z,14.60
2019-02-28T11:06:35.236Z,15.13
2019-02-28T11:09:25.499Z,15.63
2019-02-28T11:12:16.259Z,14.93
2019-02-28T11:15:02.613Z,14.80
2019-02-28T11:17:50.583Z,14.47
2019-02-28T11:20:38.776Z,13.63
2019-02-28T11:23:26.668Z,13.83
2019-02-28T11:26:14.617Z,13.17
2019-02-28T11:29:03.125Z,13.93
2019-02-28T11:31:54.225Z,13.27
2019-02-28T11:34:41.787Z,13.70
2019-02-28T11:37:29.773Z,13.30
2019-02-28T11:40:19.836Z,13.03
2019-02-28T11:43:07.824Z,12.43
2019-02-28T11:45:56.449Z,12.70
2019-02-28T11:48:45.166Z,12.57
2019-02-28T11:51:33.161Z,12.30
2019-02-28T11:54:20.940Z,13.07
2019-02-28T11:57:08.702Z,12.80
2019-02-28T12:00:00.060Z,12.30
2019-02-28T12:02:53.059Z,12.83
2019-02-28T12:05:36.456Z,12.07
2019-02-28T12:08:24.329Z,12.53
2019-02-28T12:11:12.097Z,13.13
2019-02-28T12:13:59.717Z,12.50
2019-02-28T12:16:52.748Z,12.57
2019-02-28T12:19:37.153Z,12.63
2019-02-28T12:22:24.992Z,12.43
2019-02-28T12:25:15.311Z,11.90
2019-02-28T12:28:06.345Z,12.63
2019-02-28T12:31:12.289Z,12.70
2019-02-28T12:33:59.788Z,13.03
2019-02-28T12:36:49.369Z,12.70
2019-02-28T12:39:37.407Z,13.13
2019-02-28T12:42:25.114Z,12.20
2019-02-28T12:45:21.256Z,12.33
2019-02-28T12:48:08.102Z,14.07
2019-02-28T12:50:55.722Z,13.47
2019-02-28T12:53:43.598Z,13.10
2019-02-28T12:56:31.361Z,14.07
2019-02-28T12:59:19.290Z,13.43
2019-02-28T13:02:08.424Z,13.57
2019-02-28T13:04:56.790Z,14.00
2019-02-28T13:07:44.580Z,13.73
2019-02-28T13:10:32.219Z,14.83
2019-02-28T13:13:21.423Z,13.20
2019-02-28T13:16:09.967Z,14.73
2019-02-28T13:18:58.141Z,14.63
2019-02-28T13:21:46.781Z,14.50
2019-02-28T13:24:35.521Z,14.83
2019-02-28T13:27:23.176Z,14.10
2019-02-28T13:30:22.681Z,14.53
2019-02-28T13:33:11.030Z,13.97
2019-02-28T13:36:00.026Z,13.77
2019-02-28T13:38:49.414Z,14.20
2019-02-28T13:41:37.387Z,13.70
2019-02-28T13:44:24.990Z,14.90
2019-02-28T13:47:12.736Z,12.73
2019-02-28T13:50:00.719Z,13.13
2019-02-28T13:52:52.389Z,12.60
2019-02-28T13:55:38.398Z,13.60
2019-02-28T13:58:26.245Z,13.00
2019-02-28T14:01:14.239Z,13.40
2019-02-28T14:04:02.447Z,14.13
2019-02-28T14:06:52.399Z,13.53
2019-02-28T14:09:39.493Z,13.33
2019-02-28T14:12:28.752Z,13.60
2019-02-28T14:15:22.139Z,13.67
2019-02-28T14:18:10.831Z,13.43
2019-02-28T14:21:02.923Z,13.20
2019-02-28T14:23:52.471Z,14.23
2019-02-28T14:26:42.842Z,12.47
2019-02-28T14:29:29.307Z,12.93
2019-02-28T14:32:16.958Z,12.87
2019-02-28T14:35:07.825Z,12.90
2019-02-28T14:37:56.945Z,12.03
2019-02-28T14:40:44.702Z,12.00
2019-02-28T14:43:32.586Z,11.50
2019-02-28T14:46:20.367Z,11.80
2019-02-28T14:49:08.418Z,11.77
2019-02-28T14:51:56.310Z,11.13
2019-02-28T14:54:44.313Z,10.80
2019-02-28T14:57:31.829Z,10.70
2019-02-28T15:00:27.125Z,11.13
2019-02-28T15:03:15.102Z,11.33
2019-02-28T15:06:02.877Z,12.77
2019-02-28T15:08:51.971Z,13.83
2019-02-28T15:11:39.839Z,13.63
2019-02-28T15:14:27.388Z,13.03
2019-02-28T15:17:15.472Z,13.40
2019-02-28T15:20:04.343Z,13.83
2019-02-28T15:22:52.454Z,13.50
2019-02-28T15:25:43.287Z,13.37
2019-02-28T15:28:31.305Z,14.10
2019-02-28T15:31:19.181Z,13.73
2019-02-28T15:34:06.968Z,13.37
2019-02-28T15:36:55.568Z,15.43
2019-02-28T15:39:44.247Z,14.57
2019-02-28T15:42:31.701Z,15.10
2019-02-28T15:45:19.540Z,15.63
2019-02-28T15:48:07.524Z,13.53
2019-02-28T15:50:55.184Z,14.97
2019-02-28T15:53:42.727Z,12.70
2019-02-28T15:56:30.862Z,14.73
2019-02-28T15:59:18.758Z,13.87
2019-02-28T16:02:07.230Z,14.13
2019-02-28T16:04:57.668Z,11.90
2019-02-28T16:07:44.985Z,12.80
2019-02-28T16:10:34.897Z,12.40
2019-02-28T16:13:22.673Z,12.40
2019-02-28T16:16:12.439Z,12.00
2019-02-28T16:19:00.222Z,12.37
2019-02-28T16:21:48.101Z,12.13
2019-02-28T16:24:36.651Z,12.60
2019-02-28T16:27:25.778Z,11.97
2019-02-28T16:30:16.618Z,10.83
2019-02-28T16:33:04.348Z,10.90
2019-02-28T16:35:52.012Z,10.37
2019-02-28T16:38:42.488Z,9.50
2019-02-28T16:41:29.373Z,10.07
2019-02-28T16:44:17.134Z,9.63
2019-02-28T16:47:04.988Z,10.27
2019-02-28T16:49:53.078Z,9.60
2019-02-28T16:52:40.698Z,8.87
2019-02-28T16:55:30.800Z,12.20
2019-02-28T16:58:18.619Z,16.00
2019-02-28T17:01:07.857Z,12.80
2019-02-28T17:03:55.932Z,15.27
2019-02-28T17:06:43.897Z,16.73
2019-02-28T17:09:33.545Z,13.60
2019-02-28T17:12:38.126Z,17.40
2019-02-28T17:15:28.329Z,18.47
2019-02-28T17:18:18.529Z,14.27
2019-02-28T17:21:07.410Z,12.50
2019-02-28T17:23:55.193Z,15.13
2019-02-28T17:26:47.480Z,13.40
2019-02-28T17:29:36.713Z,14.00
2019-02-28T17:32:28.062Z,13.70
2019-02-28T17:35:14.513Z,12.87
2019-02-28T17:38:02.638Z,13.57
2019-02-28T17:40:50.490Z,13.70
2019-02-28T17:43:39.109Z,13.67
2019-02-28T17:46:26.774Z,12.70
2019-02-28T17:49:37.265Z,13.47
2019-02-28T17:52:33.636Z,13.23
2019-02-28T17:55:41.027Z,12.13
2019-02-28T17:58:38.347Z,12.87
2019-02-28T18:01:38.197Z,12.80
2019-02-28T18:08:52.176Z,10.67
2019-02-28T18:12:16.541Z,9.80
2019-02-28T18:15:10.471Z,9.70
2019-02-28T18:18:15.678Z,9.27
2019-02-28T18:21:22.566Z,9.63
2019-02-28T18:24:41.321Z,9.27
2019-02-28T18:27:46.806Z,8.27
2019-02-28T18:31:09.545Z,7.87
2019-02-28T18:33:59.128Z,8.23
2019-02-28T18:36:46.983Z,7.80
2019-02-28T18:39:34.812Z,9.87
2019-02-28T18:42:22.660Z,6.27
2019-02-28T18:48:58.772Z,6.10
2019-02-28T18:51:46.607Z,5.83
2019-02-28T18:54:34.669Z,5.23
2019-02-28T18:57:22.393Z,5.77
2019-02-28T19:00:15.081Z,4.80
2019-02-28T19:03:02.701Z,4.83
2019-02-28T19:05:50.447Z,4.90
2019-02-28T19:08:38.106Z,4.57
2019-02-28T19:11:26.073Z,4.73
2019-02-28T19:14:13.673Z,5.03
2019-02-28T19:17:01.521Z,4.97
2019-02-28T19:19:49.484Z,5.10
2019-02-28T19:22:37.109Z,4.80
2019-02-28T19:25:24.741Z,4.93
2019-02-28T19:28:12.867Z,4.67
2019-02-28T19:31:00.460Z,4.77
2019-02-28T19:33:48.253Z,4.80
2019-02-28T19:36:36.142Z,4.00
2019-02-28T19:39:24.221Z,3.90
2019-02-28T19:42:11.847Z,4.20
2019-02-28T19:44:59.852Z,4.20
2019-02-28T19:47:47.765Z,4.63
2019-02-28T19:50:35.985Z,4.20
2019-02-28T19:53:23.653Z,4.43
2019-02-28T19:56:11.531Z,3.60
2019-02-28T19:58:59.425Z,3.43
2019-02-28T20:01:46.870Z,3.47
2019-02-28T20:04:34.683Z,3.87
2019-02-28T20:07:22.239Z,3.77
2019-02-28T20:10:15.812Z,4.37
2019-02-28T20:13:04.873Z,4.30
2019-02-28T20:15:52.691Z,3.83
2019-02-28T20:18:40.228Z,3.40
2019-02-28T20:21:28.021Z,3.90
2019-02-28T20:24:15.949Z,3.93
2019-02-28T20:27:03.663Z,4.70
2019-02-28T20:29:55.075Z,3.77
2019-02-28T20:32:41.656Z,3.87
2019-02-28T20:35:29.402Z,3.50
2019-02-28T20:38:17.232Z,3.90
2019-02-28T20:41:05.100Z,3.63
2019-02-28T20:43:52.967Z,3.80
2019-02-28T20:46:40.795Z,3.67
2019-02-28T20:49:28.568Z,3.40
2019-02-28T20:52:16.093Z,3.37
2019-02-28T20:55:05.265Z,3.73
2019-02-28T20:57:53.160Z,4.03
2019-02-28T21:00:41.096Z,3.60
2019-02-28T21:03:29.059Z,3.73
2019-02-28T21:06:16.884Z,2.83
2019-02-28T21:09:06.316Z,3.40
2019-02-28T21:11:54.137Z,3.43
2019-02-28T21:14:42.035Z,3.00
2019-02-28T21:17:29.768Z,3.40
2019-02-28T21:20:17.737Z,2.93
2019-02-28T21:23:05.638Z,3.37
2019-02-28T21:25:53.602Z,3.67
2019-02-28T21:28:41.290Z,3.80
2019-02-28T21:31:28.870Z,3.33
2019-02-28T21:34:18.445Z,3.60
2019-02-28T21:37:06.454Z,3.33
2019-02-28T21:39:54.310Z,3.37
2019-02-28T21:42:42.269Z,3.10
2019-02-28T21:45:30.446Z,2.93
2019-02-28T21:48:18.395Z,3.33
2019-02-28T21:51:06.193Z,3.00
2019-02-28T21:53:54.173Z,2.70
2019-02-28T21:56:42.193Z,2.67
2019-02-28T21:59:30.245Z,3.00
2019-02-28T22:02:18.726Z,3.50
2019-02-28T22:05:09.776Z,2.80
2019-02-28T22:07:57.439Z,2.53
2019-02-28T22:10:45.513Z,3.17
2019-02-28T22:13:33.633Z,3.20
2019-02-28T22:16:21.588Z,2.80
2019-02-28T22:19:09.536Z,3.37
2019-02-28T22:21:57.393Z,3.33
2019-02-28T22:24:47.240Z,3.23
2019-02-28T22:27:35.681Z,2.97
2019-02-28T22:30:43.494Z,2.63
2019-02-28T22:33:36.009Z,2.93
2019-02-28T22:36:31.176Z,2.67
2019-02-28T22:39:19.818Z,2.80
2019-02-28T22:42:07.699Z,2.63
2019-02-28T22:44:55.709Z,3.10
2019-02-28T22:47:43.609Z,3.13
2019-02-28T22:50:31.804Z,3.10
2019-02-28T22:53:19.596Z,2.93
2019-02-28T22:56:07.501Z,2.70
2019-02-28T22:58:55.327Z,3.00
2019-02-28T23:01:43.696Z,2.80
2019-02-28T23:04:31.368Z,2.90
2019-02-28T23:07:19.028Z,2.50
2019-02-28T23:10:07.997Z,3.23
2019-02-28T23:12:56.076Z,2.60
2019-02-28T23:15:43.877Z,3.00
2019-02-28T23:18:31.617Z,2.33
2019-02-28T23:21:19.670Z,2.93
2019-02-28T23:24:07.745Z,2.30
2019-02-28T23:27:10.011Z,2.70
2019-02-28T23:30:00.783Z,2.57
2019-02-28T23:32:55.053Z,2.87
2019-02-28T23:35:43.035Z,2.60
2019-02-28T23:38:30.769Z,2.70
2019-02-28T23:41:18.528Z,2.53
2019-02-28T23:44:06.331Z,2.83
2019-02-28T23:46:53.950Z,3.20
2019-02-28T23:49:41.896Z,3.30
2019-02-28T23:52:29.780Z,3.20
2019-02-28T23:55:17.674Z,3.20
2019-02-28T23:58:05.539Z,2.93
